sensor_id;sensor_type;location;lat;lon;timestamp;pressure;altitude;pressure_sealevel;temperature;humidity
15604;BME280;7902;49.042;9.092;2024-03-22T00:00:47;99805.38;;;13.71;59.09
15604;BME280;7902;49.042;9.092;2024-03-22T00:03:13;99810.81;;;13.70;59.21
15604;BME280;7902;49.042;9.092;2024-03-22T00:05:39;99804.38;;;13.61;58.71
15604;BME280;7902;49.042;9.092;2024-03-22T00:08:05;99812.44;;;13.59;58.61
15604;BME280;7902;49.042;9.092;2024-03-22T00:10:31;99808.53;;;13.52;59.22
15604;BME280;7902;49.042;9.092;2024-03-22T00:12:57;99799.91;;;13.50;59.34
15604;BME280;7902;49.042;9.092;2024-03-22T00:15:23;99803.50;;;13.49;59.02
15604;BME280;7902;49.042;9.092;2024-03-22T00:17:49;99802.47;;;13.39;59.33
15604;BME280;7902;49.042;9.092;2024-03-22T00:20:15;99793.03;;;13.24;59.39
15604;BME280;7902;49.042;9.092;2024-03-22T00:22:41;99793.03;;;13.24;59.43
15604;BME280;7902;49.042;9.092;2024-03-22T00:25:07;99787.06;;;13.22;59.56
15604;BME280;7902;49.042;9.092;2024-03-22T00:27:33;99780.66;;;13.13;59.51
15604;BME280;7902;49.042;9.092;2024-03-22T00:29:59;99778.75;;;13.03;58.99
15604;BME280;7902;49.042;9.092;2024-03-22T00:32:25;99769.72;;;12.94;59.58
15604;BME280;7902;49.042;9.092;2024-03-22T00:34:50;99765.47;;;12.92;59.69
15604;BME280;7902;49.042;9.092;2024-03-22T00:37:16;99767.50;;;12.88;59.77
15604;BME280;7902;49.042;9.092;2024-03-22T00:39:42;99767.41;;;12.90;59.51
15604;BME280;7902;49.042;9.092;2024-03-22T00:42:08;99774.88;;;12.83;59.92
15604;BME280;7902;49.042;9.092;2024-03-22T00:44:34;99761.91;;;12.93;59.34
15604;BME280;7902;49.042;9.092;2024-03-22T00:47:00;99760.97;;;12.94;59.70
15604;BME280;7902;49.042;9.092;2024-03-22T00:49:29;99756.84;;;12.90;59.67
15604;BME280;7902;49.042;9.092;2024-03-22T00:51:55;99754.66;;;12.84;59.51
15604;BME280;7902;49.042;9.092;2024-03-22T00:54:22;99753.72;;;12.85;59.55
15604;BME280;7902;49.042;9.092;2024-03-22T00:56:48;99744.81;;;12.86;59.45
15604;BME280;7902;49.042;9.092;2024-03-22T00:59:14;99738.59;;;12.87;59.09
15604;BME280;7902;49.042;9.092;2024-03-22T01:01:40;99730.00;;;12.85;59.61
15604;BME280;7902;49.042;9.092;2024-03-22T01:04:06;99731.16;;;12.81;59.43
15604;BME280;7902;49.042;9.092;2024-03-22T01:06:34;99722.50;;;12.79;59.44
15604;BME280;7902;49.042;9.092;2024-03-22T01:09:00;99715.88;;;12.73;59.67
15604;BME280;7902;49.042;9.092;2024-03-22T01:11:26;99714.94;;;12.74;59.30
15604;BME280;7902;49.042;9.092;2024-03-22T01:13:52;99725.44;;;12.87;58.83
15604;BME280;7902;49.042;9.092;2024-03-22T01:16:18;99722.91;;;12.85;58.75
15604;BME280;7902;49.042;9.092;2024-03-22T01:18:44;99723.34;;;12.79;58.70
15604;BME280;7902;49.042;9.092;2024-03-22T01:21:10;99721.56;;;12.67;59.25
15604;BME280;7902;49.042;9.092;2024-03-22T01:23:36;99717.91;;;12.69;59.76
15604;BME280;7902;49.042;9.092;2024-03-22T01:26:01;99717.16;;;12.67;59.71
15604;BME280;7902;49.042;9.092;2024-03-22T01:28:27;99705.91;;;12.65;59.28
15604;BME280;7902;49.042;9.092;2024-03-22T01:30:53;99710.31;;;12.65;60.13
15604;BME280;7902;49.042;9.092;2024-03-22T01:33:19;99707.59;;;12.66;59.74
15604;BME280;7902;49.042;9.092;2024-03-22T01:35:45;99710.41;;;12.63;59.52
15604;BME280;7902;49.042;9.092;2024-03-22T01:38:11;99704.22;;;12.64;59.40
15604;BME280;7902;49.042;9.092;2024-03-22T01:40:37;99703.13;;;12.67;59.74
15604;BME280;7902;49.042;9.092;2024-03-22T01:43:03;99699.78;;;12.65;60.33
15604;BME280;7902;49.042;9.092;2024-03-22T01:45:32;99703.38;;;12.64;59.73
15604;BME280;7902;49.042;9.092;2024-03-22T01:47:59;99696.81;;;12.69;59.92
15604;BME280;7902;49.042;9.092;2024-03-22T01:50:27;99699.03;;;12.63;59.90
15604;BME280;7902;49.042;9.092;2024-03-22T01:52:53;99695.34;;;12.65;59.67
15604;BME280;7902;49.042;9.092;2024-03-22T01:55:19;99694.84;;;12.60;59.57
15604;BME280;7902;49.042;9.092;2024-03-22T01:57:46;99690.75;;;12.56;59.64
15604;BME280;7902;49.042;9.092;2024-03-22T02:00:12;99687.97;;;12.58;59.87
15604;BME280;7902;49.042;9.092;2024-03-22T02:02:38;99681.25;;;12.54;60.34
15604;BME280;7902;49.042;9.092;2024-03-22T02:05:17;99684.44;;;12.46;59.92
15604;BME280;7902;49.042;9.092;2024-03-22T02:07:47;99681.81;;;12.46;59.91
15604;BME280;7902;49.042;9.092;2024-03-22T02:10:14;99675.38;;;12.50;59.97
15604;BME280;7902;49.042;9.092;2024-03-22T02:12:40;99681.25;;;12.54;60.26
15604;BME280;7902;49.042;9.092;2024-03-22T02:15:07;99677.38;;;12.47;60.23
15604;BME280;7902;49.042;9.092;2024-03-22T02:17:34;99671.38;;;12.45;60.46
15604;BME280;7902;49.042;9.092;2024-03-22T02:20:01;99675.59;;;12.47;60.37
15604;BME280;7902;49.042;9.092;2024-03-22T02:22:27;99671.78;;;12.51;60.22
15604;BME280;7902;49.042;9.092;2024-03-22T02:24:53;99666.91;;;12.58;60.41
15604;BME280;7902;49.042;9.092;2024-03-22T02:27:19;99664.31;;;12.45;61.13
15604;BME280;7902;49.042;9.092;2024-03-22T02:29:45;99659.78;;;12.47;60.12
15604;BME280;7902;49.042;9.092;2024-03-22T02:32:11;99649.25;;;12.47;60.93
15604;BME280;7902;49.042;9.092;2024-03-22T02:34:37;99659.16;;;12.44;60.79
15604;BME280;7902;49.042;9.092;2024-03-22T02:37:03;99653.25;;;12.40;60.69
15604;BME280;7902;49.042;9.092;2024-03-22T02:39:29;99666.66;;;12.37;61.20
15604;BME280;7902;49.042;9.092;2024-03-22T02:41:55;99655.56;;;12.45;60.64
15604;BME280;7902;49.042;9.092;2024-03-22T02:44:21;99655.25;;;12.49;60.82
15604;BME280;7902;49.042;9.092;2024-03-22T02:46:47;99653.41;;;12.62;60.71
15604;BME280;7902;49.042;9.092;2024-03-22T02:49:13;99653.19;;;12.65;60.55
15604;BME280;7902;49.042;9.092;2024-03-22T02:51:39;99654.16;;;12.64;60.76
15604;BME280;7902;49.042;9.092;2024-03-22T02:54:05;99643.88;;;12.72;60.65
15604;BME280;7902;49.042;9.092;2024-03-22T02:56:31;99650.59;;;12.76;60.39
15604;BME280;7902;49.042;9.092;2024-03-22T02:58:57;99639.03;;;12.79;60.41
15604;BME280;7902;49.042;9.092;2024-03-22T03:01:23;99643.44;;;12.79;60.62
15604;BME280;7902;49.042;9.092;2024-03-22T03:03:48;99649.78;;;12.76;60.43
15604;BME280;7902;49.042;9.092;2024-03-22T03:06:14;99638.63;;;12.72;61.01
15604;BME280;7902;49.042;9.092;2024-03-22T03:08:42;99635.03;;;12.73;61.04
15604;BME280;7902;49.042;9.092;2024-03-22T03:11:08;99636.22;;;12.69;60.71
15604;BME280;7902;49.042;9.092;2024-03-22T03:13:34;99633.31;;;12.61;60.92
15604;BME280;7902;49.042;9.092;2024-03-22T03:15:59;99635.94;;;12.61;60.96
15604;BME280;7902;49.042;9.092;2024-03-22T03:18:25;99641.53;;;12.57;61.26
15604;BME280;7902;49.042;9.092;2024-03-22T03:20:51;99634.34;;;12.59;61.32
15604;BME280;7902;49.042;9.092;2024-03-22T03:23:17;99630.88;;;12.58;61.24
15604;BME280;7902;49.042;9.092;2024-03-22T03:25:43;99634.25;;;12.60;61.27
15604;BME280;7902;49.042;9.092;2024-03-22T03:28:09;99625.16;;;12.64;61.04
15604;BME280;7902;49.042;9.092;2024-03-22T03:30:35;99632.56;;;12.59;61.32
15604;BME280;7902;49.042;9.092;2024-03-22T03:33:01;99629.66;;;12.75;60.75
15604;BME280;7902;49.042;9.092;2024-03-22T03:35:27;99627.47;;;12.69;60.53
15604;BME280;7902;49.042;9.092;2024-03-22T03:37:55;99632.22;;;12.64;61.11
15604;BME280;7902;49.042;9.092;2024-03-22T03:40:21;99632.06;;;12.78;61.09
15604;BME280;7902;49.042;9.092;2024-03-22T03:42:47;99622.72;;;12.74;60.99
15604;BME280;7902;49.042;9.092;2024-03-22T03:45:13;99620.63;;;12.66;60.95
15604;BME280;7902;49.042;9.092;2024-03-22T03:47:39;99617.09;;;12.79;60.91
15604;BME280;7902;49.042;9.092;2024-03-22T03:50:06;99617.34;;;12.75;60.96
15604;BME280;7902;49.042;9.092;2024-03-22T03:52:32;99617.88;;;12.68;61.03
15604;BME280;7902;49.042;9.092;2024-03-22T03:54:58;99613.78;;;12.64;61.34
15604;BME280;7902;49.042;9.092;2024-03-22T03:57:24;99605.97;;;12.62;61.25
15604;BME280;7902;49.042;9.092;2024-03-22T03:59:49;99610.97;;;12.54;61.33
15604;BME280;7902;49.042;9.092;2024-03-22T04:02:15;99607.66;;;12.63;61.85
15604;BME280;7902;49.042;9.092;2024-03-22T04:04:41;99607.47;;;12.66;60.81
15604;BME280;7902;49.042;9.092;2024-03-22T04:07:07;99612.00;;;12.64;61.63
15604;BME280;7902;49.042;9.092;2024-03-22T04:09:33;99609.88;;;12.69;61.20
15604;BME280;7902;49.042;9.092;2024-03-22T04:11:59;99613.56;;;12.67;61.54
15604;BME280;7902;49.042;9.092;2024-03-22T04:14:26;99607.47;;;12.66;60.94
15604;BME280;7902;49.042;9.092;2024-03-22T04:16:52;99611.03;;;12.65;61.43
15604;BME280;7902;49.042;9.092;2024-03-22T04:19:20;99610.19;;;12.65;61.57
15604;BME280;7902;49.042;9.092;2024-03-22T04:21:46;99615.25;;;12.68;61.25
15604;BME280;7902;49.042;9.092;2024-03-22T04:24:12;99612.25;;;12.72;61.35
15604;BME280;7902;49.042;9.092;2024-03-22T04:26:38;99615.84;;;12.71;61.51
15604;BME280;7902;49.042;9.092;2024-03-22T04:29:04;99619.22;;;12.73;61.43
15604;BME280;7902;49.042;9.092;2024-03-22T04:31:30;99632.50;;;12.72;61.78
15604;BME280;7902;49.042;9.092;2024-03-22T04:33:56;99630.84;;;12.71;61.25
15604;BME280;7902;49.042;9.092;2024-03-22T04:36:22;99629.03;;;12.71;61.54
15604;BME280;7902;49.042;9.092;2024-03-22T04:38:48;99626.53;;;12.70;61.18
15604;BME280;7902;49.042;9.092;2024-03-22T04:41:14;99637.81;;;12.59;61.68
15604;BME280;7902;49.042;9.092;2024-03-22T04:43:41;99629.19;;;12.57;61.80
15604;BME280;7902;49.042;9.092;2024-03-22T04:46:07;99634.44;;;12.57;61.75
15604;BME280;7902;49.042;9.092;2024-03-22T04:48:33;99631.72;;;12.59;62.09
15604;BME280;7902;49.042;9.092;2024-03-22T04:50:59;99636.66;;;12.63;61.81
15604;BME280;7902;49.042;9.092;2024-03-22T04:53:25;99628.97;;;12.60;61.73
15604;BME280;7902;49.042;9.092;2024-03-22T04:55:51;99623.72;;;12.60;61.80
15604;BME280;7902;49.042;9.092;2024-03-22T04:58:18;99620.34;;;12.58;62.11
15604;BME280;7902;49.042;9.092;2024-03-22T05:00:45;99623.72;;;12.60;61.88
15604;BME280;7902;49.042;9.092;2024-03-22T05:03:11;99617.84;;;12.57;62.21
15604;BME280;7902;49.042;9.092;2024-03-22T05:05:38;99617.69;;;12.58;61.89
15604;BME280;7902;49.042;9.092;2024-03-22T05:08:05;99616.13;;;12.56;61.86
15604;BME280;7902;49.042;9.092;2024-03-22T05:10:31;99613.09;;;12.49;62.16
15604;BME280;7902;49.042;9.092;2024-03-22T05:12:57;99615.97;;;12.46;62.07
15604;BME280;7902;49.042;9.092;2024-03-22T05:15:24;99607.81;;;12.49;62.13
15604;BME280;7902;49.042;9.092;2024-03-22T05:17:53;99598.03;;;12.51;62.00
15604;BME280;7902;49.042;9.092;2024-03-22T05:20:20;99600.66;;;12.51;62.31
15604;BME280;7902;49.042;9.092;2024-03-22T05:22:47;99602.22;;;12.54;62.18
15604;BME280;7902;49.042;9.092;2024-03-22T05:25:13;99603.47;;;12.61;61.77
15604;BME280;7902;49.042;9.092;2024-03-22T05:27:41;99596.19;;;12.64;61.80
15604;BME280;7902;49.042;9.092;2024-03-22T05:30:11;99597.06;;;12.76;61.55
15604;BME280;7902;49.042;9.092;2024-03-22T05:32:37;99598.41;;;12.82;61.37
15604;BME280;7902;49.042;9.092;2024-03-22T05:35:03;99587.50;;;12.75;61.74
15604;BME280;7902;49.042;9.092;2024-03-22T05:37:29;99594.56;;;12.74;61.77
15604;BME280;7902;49.042;9.092;2024-03-22T05:39:55;99593.56;;;12.64;61.84
15604;BME280;7902;49.042;9.092;2024-03-22T05:42:21;99590.16;;;12.62;62.03
15604;BME280;7902;49.042;9.092;2024-03-22T05:44:47;99588.28;;;12.64;62.50
15604;BME280;7902;49.042;9.092;2024-03-22T05:47:13;99588.88;;;12.68;62.34
15604;BME280;7902;49.042;9.092;2024-03-22T05:49:39;99586.66;;;12.74;61.58
15604;BME280;7902;49.042;9.092;2024-03-22T05:52:05;99582.09;;;12.76;61.73
15604;BME280;7902;49.042;9.092;2024-03-22T05:54:31;99586.81;;;12.84;61.73
15604;BME280;7902;49.042;9.092;2024-03-22T05:56:57;99578.78;;;12.86;61.29
15604;BME280;7902;49.042;9.092;2024-03-22T05:59:23;99577.66;;;12.77;61.82
15604;BME280;7902;49.042;9.092;2024-03-22T06:01:49;99572.88;;;12.71;62.02
15604;BME280;7902;49.042;9.092;2024-03-22T06:04:14;99578.22;;;12.93;61.37
15604;BME280;7902;49.042;9.092;2024-03-22T06:06:41;99576.28;;;12.84;61.60
15604;BME280;7902;49.042;9.092;2024-03-22T06:09:07;99579.19;;;12.92;61.64
15604;BME280;7902;49.042;9.092;2024-03-22T06:11:37;99573.41;;;12.87;61.49
15604;BME280;7902;49.042;9.092;2024-03-22T06:14:02;99580.38;;;12.88;61.25
15604;BME280;7902;49.042;9.092;2024-03-22T06:16:28;99578.00;;;12.72;61.90
15604;BME280;7902;49.042;9.092;2024-03-22T06:18:54;99577.84;;;12.87;61.49
15604;BME280;7902;49.042;9.092;2024-03-22T06:21:20;99579.47;;;12.76;61.59
15604;BME280;7902;49.042;9.092;2024-03-22T06:23:51;99574.94;;;12.79;61.68
15604;BME280;7902;49.042;9.092;2024-03-22T06:26:17;99577.84;;;12.87;61.08
15604;BME280;7902;49.042;9.092;2024-03-22T06:28:43;99576.38;;;12.83;61.88
15604;BME280;7902;49.042;9.092;2024-03-22T06:31:09;99576.13;;;12.86;61.77
15604;BME280;7902;49.042;9.092;2024-03-22T06:33:35;99573.16;;;12.90;61.23
15604;BME280;7902;49.042;9.092;2024-03-22T06:36:02;99572.56;;;12.87;61.66
15604;BME280;7902;49.042;9.092;2024-03-22T06:38:29;99569.06;;;12.86;61.69
15604;BME280;7902;49.042;9.092;2024-03-22T06:40:55;99570.88;;;12.86;61.48
15604;BME280;7902;49.042;9.092;2024-03-22T06:43:21;99570.88;;;12.86;62.17
15604;BME280;7902;49.042;9.092;2024-03-22T06:45:47;99567.97;;;12.77;61.79
15604;BME280;7902;49.042;9.092;2024-03-22T06:48:13;99562.50;;;12.92;61.79
15604;BME280;7902;49.042;9.092;2024-03-22T06:50:41;99558.53;;;12.86;61.78
15604;BME280;7902;49.042;9.092;2024-03-22T06:53:07;99560.84;;;12.91;61.89
15604;BME280;7902;49.042;9.092;2024-03-22T06:55:35;99549.00;;;12.96;61.76
15604;BME280;7902;49.042;9.092;2024-03-22T06:58:01;99553.72;;;13.04;62.42
15604;BME280;7902;49.042;9.092;2024-03-22T07:00:27;99548.44;;;13.04;62.00
15604;BME280;7902;49.042;9.092;2024-03-22T07:02:53;99549.03;;;13.07;61.28
15604;BME280;7902;49.042;9.092;2024-03-22T07:05:21;99550.41;;;13.13;61.40
15604;BME280;7902;49.042;9.092;2024-03-22T07:07:47;99544.16;;;13.14;61.32
15604;BME280;7902;49.042;9.092;2024-03-22T07:10:15;99543.94;;;13.17;60.93
15604;BME280;7902;49.042;9.092;2024-03-22T07:12:41;99542.25;;;13.16;61.35
15604;BME280;7902;49.042;9.092;2024-03-22T07:15:07;99539.50;;;13.17;61.73
15604;BME280;7902;49.042;9.092;2024-03-22T07:17:33;99537.38;;;13.34;60.43
15604;BME280;7902;49.042;9.092;2024-03-22T07:19:59;99531.53;;;13.41;60.72
15604;BME280;7902;49.042;9.092;2024-03-22T07:22:25;99529.81;;;13.40;61.23
15604;BME280;7902;49.042;9.092;2024-03-22T07:24:51;99536.44;;;13.46;60.98
15604;BME280;7902;49.042;9.092;2024-03-22T07:27:17;99530.81;;;13.50;60.63
15604;BME280;7902;49.042;9.092;2024-03-22T07:29:46;99524.44;;;13.53;60.22
15604;BME280;7902;49.042;9.092;2024-03-22T07:32:12;99527.19;;;13.62;60.82
15604;BME280;7902;49.042;9.092;2024-03-22T07:34:38;99526.72;;;13.69;59.60
15604;BME280;7902;49.042;9.092;2024-03-22T07:37:04;99536.53;;;13.67;60.77
15604;BME280;7902;49.042;9.092;2024-03-22T07:39:30;99529.59;;;13.77;59.59
15604;BME280;7902;49.042;9.092;2024-03-22T07:41:56;99523.34;;;13.78;59.43
15604;BME280;7902;49.042;9.092;2024-03-22T07:44:22;99536.66;;;13.87;60.31
15604;BME280;7902;49.042;9.092;2024-03-22T07:46:50;99527.06;;;13.86;59.97
15604;BME280;7902;49.042;9.092;2024-03-22T07:49:16;99524.78;;;13.82;59.50
15604;BME280;7902;49.042;9.092;2024-03-22T07:51:42;99520.34;;;13.93;58.82
15604;BME280;7902;49.042;9.092;2024-03-22T07:54:07;99516.88;;;13.93;60.13
15604;BME280;7902;49.042;9.092;2024-03-22T07:56:33;99527.66;;;14.01;59.36
15604;BME280;7902;49.042;9.092;2024-03-22T07:58:59;99512.75;;;14.00;59.35
15604;BME280;7902;49.042;9.092;2024-03-22T08:01:26;99511.06;;;13.99;59.35
15604;BME280;7902;49.042;9.092;2024-03-22T08:03:52;99516.13;;;14.02;58.58
15604;BME280;7902;49.042;9.092;2024-03-22T08:06:18;99516.84;;;14.04;59.35
15604;BME280;7902;49.042;9.092;2024-03-22T08:08:44;99512.06;;;13.98;59.42
15604;BME280;7902;49.042;9.092;2024-03-22T08:11:10;99510.34;;;14.08;59.28
15604;BME280;7902;49.042;9.092;2024-03-22T08:13:36;99501.84;;;14.04;59.58
15604;BME280;7902;49.042;9.092;2024-03-22T08:16:03;99508.16;;;14.13;58.96
15604;BME280;7902;49.042;9.092;2024-03-22T08:18:29;99506.38;;;14.14;58.88
15604;BME280;7902;49.042;9.092;2024-03-22T08:20:54;99502.16;;;14.22;59.24
15604;BME280;7902;49.042;9.092;2024-03-22T08:23:20;99503.59;;;14.26;58.35
15604;BME280;7902;49.042;9.092;2024-03-22T08:25:48;99503.00;;;14.23;58.76
15604;BME280;7902;49.042;9.092;2024-03-22T08:28:14;99498.06;;;14.29;58.84
15604;BME280;7902;49.042;9.092;2024-03-22T08:30:41;99505.25;;;14.27;59.50
15604;BME280;7902;49.042;9.092;2024-03-22T08:33:08;99494.94;;;14.35;59.14
15604;BME280;7902;49.042;9.092;2024-03-22T08:35:34;99489.16;;;14.41;59.01
15604;BME280;7902;49.042;9.092;2024-03-22T08:38:00;99491.78;;;14.41;58.60
15604;BME280;7902;49.042;9.092;2024-03-22T08:40:26;99489.16;;;14.41;58.38
15604;BME280;7902;49.042;9.092;2024-03-22T08:42:53;99489.03;;;14.43;59.05
15604;BME280;7902;49.042;9.092;2024-03-22T08:45:19;99480.72;;;14.47;59.22
15604;BME280;7902;49.042;9.092;2024-03-22T08:47:45;99481.31;;;14.51;59.15
15604;BME280;7902;49.042;9.092;2024-03-22T08:50:11;99472.41;;;14.52;58.24
15604;BME280;7902;49.042;9.092;2024-03-22T08:52:37;99473.25;;;14.53;58.29
15604;BME280;7902;49.042;9.092;2024-03-22T08:55:04;99466.75;;;14.57;58.86
15604;BME280;7902;49.042;9.092;2024-03-22T08:57:33;99466.06;;;14.55;58.92
15604;BME280;7902;49.042;9.092;2024-03-22T08:59:59;99469.69;;;14.42;58.50
15604;BME280;7902;49.042;9.092;2024-03-22T09:02:24;99458.56;;;14.60;59.73
15604;BME280;7902;49.042;9.092;2024-03-22T09:04:50;99455.72;;;14.52;59.54
15604;BME280;7902;49.042;9.092;2024-03-22T09:07:17;99458.81;;;14.57;59.49
15604;BME280;7902;49.042;9.092;2024-03-22T09:09:43;99456.91;;;14.79;59.39
15604;BME280;7902;49.042;9.092;2024-03-22T09:12:09;99457.34;;;14.84;58.60
15604;BME280;7902;49.042;9.092;2024-03-22T09:14:34;99457.22;;;14.86;57.96
15604;BME280;7902;49.042;9.092;2024-03-22T09:17:01;99462.56;;;14.75;59.41
15604;BME280;7902;49.042;9.092;2024-03-22T09:19:26;99458.19;;;14.85;59.26
15604;BME280;7902;49.042;9.092;2024-03-22T09:21:53;99449.81;;;14.80;58.54
15604;BME280;7902;49.042;9.092;2024-03-22T09:24:19;99454.97;;;14.81;58.90
15604;BME280;7902;49.042;9.092;2024-03-22T09:26:44;99443.44;;;14.82;58.94
15604;BME280;7902;49.042;9.092;2024-03-22T09:29:10;99440.84;;;14.92;58.59
15604;BME280;7902;49.042;9.092;2024-03-22T09:31:38;99438.22;;;14.92;57.85
15604;BME280;7902;49.042;9.092;2024-03-22T09:34:04;99437.88;;;14.85;59.57
15604;BME280;7902;49.042;9.092;2024-03-22T09:36:31;99425.94;;;14.91;58.35
15604;BME280;7902;49.042;9.092;2024-03-22T09:39:01;99421.63;;;14.90;57.82
15604;BME280;7902;49.042;9.092;2024-03-22T09:41:31;99419.31;;;14.97;58.53
15604;BME280;7902;49.042;9.092;2024-03-22T09:43:58;99418.06;;;15.01;58.44
15604;BME280;7902;49.042;9.092;2024-03-22T09:46:26;99411.66;;;15.03;59.68
15604;BME280;7902;49.042;9.092;2024-03-22T09:48:53;99404.38;;;15.26;58.10
15604;BME280;7902;49.042;9.092;2024-03-22T09:51:20;99400.44;;;15.11;58.90
15604;BME280;7902;49.042;9.092;2024-03-22T09:53:52;99394.31;;;15.10;58.06
15604;BME280;7902;49.042;9.092;2024-03-22T09:56:20;99391.69;;;15.10;58.95
15604;BME280;7902;49.042;9.092;2024-03-22T09:58:46;99384.22;;;15.25;58.75
15604;BME280;7902;49.042;9.092;2024-03-22T10:01:12;99388.50;;;15.26;57.87
15604;BME280;7902;49.042;9.092;2024-03-22T10:03:38;99385.31;;;15.22;57.99
15604;BME280;7902;49.042;9.092;2024-03-22T10:06:04;99381.41;;;15.26;57.70
15604;BME280;7902;49.042;9.092;2024-03-22T10:08:30;99379.63;;;15.27;58.08
15604;BME280;7902;49.042;9.092;2024-03-22T10:10:56;99372.25;;;15.30;58.31
15604;BME280;7902;49.042;9.092;2024-03-22T10:13:23;99370.44;;;15.31;57.92
15604;BME280;7902;49.042;9.092;2024-03-22T10:15:48;99364.31;;;15.30;57.57
15604;BME280;7902;49.042;9.092;2024-03-22T10:18:14;99366.84;;;15.42;58.25
15604;BME280;7902;49.042;9.092;2024-03-22T10:20:41;99374.22;;;15.38;58.14
15604;BME280;7902;49.042;9.092;2024-03-22T10:23:08;99361.84;;;15.38;58.44
15604;BME280;7902;49.042;9.092;2024-03-22T10:25:34;99364.91;;;15.44;58.22
15604;BME280;7902;49.042;9.092;2024-03-22T10:28:00;99355.72;;;15.48;58.01
15604;BME280;7902;49.042;9.092;2024-03-22T10:30:26;99349.72;;;15.46;58.96
15604;BME280;7902;49.042;9.092;2024-03-22T10:32:53;99347.09;;;15.46;58.85
15604;BME280;7902;49.042;9.092;2024-03-22T10:35:19;99342.63;;;15.46;57.59
15604;BME280;7902;49.042;9.092;2024-03-22T10:37:45;99346.88;;;15.58;57.83
15604;BME280;7902;49.042;9.092;2024-03-22T10:40:12;99340.31;;;15.53;57.81
15604;BME280;7902;49.042;9.092;2024-03-22T10:42:39;99341.72;;;15.57;58.67
15604;BME280;7902;49.042;9.092;2024-03-22T10:45:07;99334.88;;;15.64;57.72
15604;BME280;7902;49.042;9.092;2024-03-22T10:47:35;99336.03;;;15.71;57.85
15604;BME280;7902;49.042;9.092;2024-03-22T10:50:06;99324.88;;;15.77;58.03
15604;BME280;7902;49.042;9.092;2024-03-22T10:52:40;99326.13;;;15.92;57.74
15604;BME280;7902;49.042;9.092;2024-03-22T10:55:10;99322.78;;;15.90;57.67
15604;BME280;7902;49.042;9.092;2024-03-22T10:57:39;99321.00;;;15.91;57.26
15604;BME280;7902;49.042;9.092;2024-03-22T11:00:09;99310.22;;;15.82;58.36
15604;BME280;7902;49.042;9.092;2024-03-22T11:02:38;99301.44;;;15.92;58.20
15604;BME280;7902;49.042;9.092;2024-03-22T11:05:16;99302.16;;;15.94;57.94
15604;BME280;7902;49.042;9.092;2024-03-22T11:07:44;99300.91;;;16.07;57.29
15604;BME280;7902;49.042;9.092;2024-03-22T11:10:11;99289.75;;;16.13;56.95
15604;BME280;7902;49.042;9.092;2024-03-22T11:12:39;99285.97;;;16.06;57.97
15604;BME280;7902;49.042;9.092;2024-03-22T11:15:05;99284.03;;;16.08;56.81
15604;BME280;7902;49.042;9.092;2024-03-22T11:17:31;99272.66;;;16.35;56.86
15604;BME280;7902;49.042;9.092;2024-03-22T11:19:57;99281.31;;;16.37;56.42
15604;BME280;7902;49.042;9.092;2024-03-22T11:22:25;99260.81;;;16.30;56.87
15604;BME280;7902;49.042;9.092;2024-03-22T11:24:52;99274.03;;;16.49;56.21
15604;BME280;7902;49.042;9.092;2024-03-22T11:27:18;99255.50;;;16.39;56.32
15604;BME280;7902;49.042;9.092;2024-03-22T11:29:47;99262.00;;;16.64;55.38
15604;BME280;7902;49.042;9.092;2024-03-22T11:32:12;99249.72;;;16.63;55.57
15604;BME280;7902;49.042;9.092;2024-03-22T11:34:39;99244.97;;;16.76;52.06
15604;BME280;7902;49.042;9.092;2024-03-22T11:37:07;99241.16;;;16.79;52.24
15604;BME280;7902;49.042;9.092;2024-03-22T11:39:36;99241.28;;;17.04;48.57
15604;BME280;7902;49.042;9.092;2024-03-22T11:42:06;99233.69;;;16.92;50.99
15604;BME280;7902;49.042;9.092;2024-03-22T11:44:36;99226.88;;;16.89;51.12
15604;BME280;7902;49.042;9.092;2024-03-22T11:47:04;99221.00;;;17.13;47.21
15604;BME280;7902;49.042;9.092;2024-03-22T11:49:29;99222.13;;;17.10;47.13
15604;BME280;7902;49.042;9.092;2024-03-22T11:51:56;99221.19;;;16.84;53.25
15604;BME280;7902;49.042;9.092;2024-03-22T11:54:23;99222.34;;;16.72;52.61
15604;BME280;7902;49.042;9.092;2024-03-22T11:56:51;99210.34;;;16.68;51.77
15604;BME280;7902;49.042;9.092;2024-03-22T11:59:21;99211.16;;;16.78;51.17
15604;BME280;7902;49.042;9.092;2024-03-22T12:01:47;99210.56;;;16.84;49.92
15604;BME280;7902;49.042;9.092;2024-03-22T12:04:13;99193.88;;;16.74;49.10
15604;BME280;7902;49.042;9.092;2024-03-22T12:06:46;99197.59;;;16.81;50.21
15604;BME280;7902;49.042;9.092;2024-03-22T12:09:12;99188.81;;;16.81;51.46
15604;BME280;7902;49.042;9.092;2024-03-22T12:11:40;99184.03;;;16.84;51.43
15604;BME280;7902;49.042;9.092;2024-03-22T12:14:06;99179.97;;;16.62;53.13
15604;BME280;7902;49.042;9.092;2024-03-22T12:16:32;99179.16;;;16.62;54.60
15604;BME280;7902;49.042;9.092;2024-03-22T12:18:58;99172.25;;;16.69;53.60
15604;BME280;7902;49.042;9.092;2024-03-22T12:21:24;99158.22;;;16.59;54.06
15604;BME280;7902;49.042;9.092;2024-03-22T12:23:50;99151.38;;;16.66;52.53
15604;BME280;7902;49.042;9.092;2024-03-22T12:26:16;99151.75;;;16.71;51.37
15604;BME280;7902;49.042;9.092;2024-03-22T12:28:42;99142.50;;;16.75;52.71
15604;BME280;7902;49.042;9.092;2024-03-22T12:31:09;99137.28;;;16.83;52.58
15604;BME280;7902;49.042;9.092;2024-03-22T12:33:36;99137.88;;;16.77;51.69
15604;BME280;7902;49.042;9.092;2024-03-22T12:36:03;99143.56;;;16.82;52.81
15604;BME280;7902;49.042;9.092;2024-03-22T12:38:29;99131.00;;;16.84;50.43
15604;BME280;7902;49.042;9.092;2024-03-22T12:40:56;99124.56;;;16.87;50.66
15604;BME280;7902;49.042;9.092;2024-03-22T12:43:23;99131.84;;;16.85;52.52
15604;BME280;7902;49.042;9.092;2024-03-22T12:45:49;99120.78;;;16.89;51.89
15604;BME280;7902;49.042;9.092;2024-03-22T12:48:14;99125.69;;;16.84;53.18
15604;BME280;7902;49.042;9.092;2024-03-22T12:50:40;99120.53;;;16.83;53.04
15604;BME280;7902;49.042;9.092;2024-03-22T12:53:06;99116.00;;;16.75;54.20
15604;BME280;7902;49.042;9.092;2024-03-22T12:55:32;99109.53;;;16.78;52.95
15604;BME280;7902;49.042;9.092;2024-03-22T12:57:58;99109.41;;;16.79;53.51
15604;BME280;7902;49.042;9.092;2024-03-22T13:00:24;99106.16;;;16.85;53.31
15604;BME280;7902;49.042;9.092;2024-03-22T13:02:51;99100.34;;;16.99;53.43
15604;BME280;7902;49.042;9.092;2024-03-22T13:05:16;99094.94;;;16.91;52.74